Time;durP1;ratioP1;P1;durP2;ratioP2;P2;SDS_P1;SDS_P2;PMS_P1;PMS_P2;Temp;Humidity;BMP_temperature;BMP_pressure;BME280_temperature;BME280_humidity;BME280_pressure;Samples;Min_cycle;Max_cycle;Signal;HPM_P1;HPM_P2
2022/08/17 00:01:50;;;;;;;;;;;22.40;83.10;;;;;;5058664;28;19943;-96
2022/08/17 00:04:18;;;;;;;;;;;22.40;83.50;;;;;;5077160;28;19978;-96
2022/08/17 00:06:43;;;;;;;;;;;22.30;83.10;;;;;;5076404;28;19964;-96
2022/08/17 00:09:09;;;;;;;;;;;22.40;83.20;;;;;;5058378;28;19996;-96
2022/08/17 00:11:37;;;;;;;;;;;22.50;82.90;;;;;;5077376;28;19944;-96
2022/08/17 00:14:07;;;;;;;;;;;22.50;83.00;;;;;;5076225;28;19937;-96
2022/08/17 00:16:37;;;;;;;;;;;22.40;83.00;;;;;;5076599;28;20282;-96
2022/08/17 00:19:05;;;;;;;;;;;22.20;83.60;;;;;;5058053;28;20034;-96
2022/08/17 00:21:32;;;;;;;;;;;21.80;84.40;;;;;;5076110;28;19935;-96
2022/08/17 00:23:58;;;;;;;;;;;21.80;84.90;;;;;;5075712;28;20069;-96
2022/08/17 00:26:27;;;;;;;;;;;21.80;84.80;;;;;;5075871;28;20013;-96
2022/08/17 00:28:53;;;;;;;;;;;21.90;84.60;;;;;;5075597;28;19988;-96
2022/08/17 00:31:19;;;;;;;;;;;22.00;84.00;;;;;;5076280;28;20005;-96
2022/08/17 00:33:44;;;;;;;;;;;22.00;83.70;;;;;;5075717;28;19983;-96
2022/08/17 00:36:10;;;;;;;;;;;22.20;83.20;;;;;;5075746;28;19955;-96
2022/08/17 00:38:36;;;;;;;;;;;22.20;83.50;;;;;;5075944;28;19940;-96
2022/08/17 00:41:04;;;;;;;;;;;22.10;83.60;;;;;;5075242;28;19948;-96
2022/08/17 00:43:32;;;;;;;;;;;22.00;83.30;;;;;;5075810;28;19990;-96
2022/08/17 00:45:58;;;;;;;;;;;22.00;83.00;;;;;;5058361;28;19960;-96
2022/08/17 00:48:24;;;;;;;;;;;22.20;82.60;;;;;;5076729;28;19943;-96
2022/08/17 00:50:59;;;;;;;;;;;22.20;82.80;;;;;;5076141;28;20370;-96
2022/08/17 00:53:26;;;;;;;;;;;22.10;82.90;;;;;;5058180;28;19940;-96
2022/08/17 00:55:52;;;;;;;;;;;22.00;83.20;;;;;;5076252;28;20002;-96
2022/08/17 00:58:17;;;;;;;;;;;22.00;83.60;;;;;;5076232;28;19942;-96
2022/08/17 01:00:44;;;;;;;;;;;22.00;83.90;;;;;;5075939;28;19965;-96
2022/08/17 01:03:18;;;;;;;;;;;22.00;83.50;;;;;;5076595;28;19941;-96
2022/08/17 01:05:45;;;;;;;;;;;22.00;83.40;;;;;;5076278;28;19955;-96
2022/08/17 01:08:12;;;;;;;;;;;22.00;83.00;;;;;;5075350;28;19939;-96
2022/08/17 01:10:40;;;;;;;;;;;21.90;82.80;;;;;;5075401;28;19936;-96
2022/08/17 01:13:06;;;;;;;;;;;21.90;82.70;;;;;;5075384;28;20003;-96
2022/08/17 01:15:34;;;;;;;;;;;21.90;82.40;;;;;;5075678;28;20369;-96
2022/08/17 01:17:59;;;;;;;;;;;21.90;82.20;;;;;;5075176;28;20029;-96
2022/08/17 01:20:25;;;;;;;;;;;22.10;82.20;;;;;;5075726;28;19982;-96
2022/08/17 01:22:51;;;;;;;;;;;22.00;82.70;;;;;;5075716;28;19950;-96
2022/08/17 01:25:18;;;;;;;;;;;21.80;82.80;;;;;;5075488;28;19961;-96
2022/08/17 01:27:43;;;;;;;;;;;21.80;83.30;;;;;;5074903;28;19948;-96
2022/08/17 01:30:10;;;;;;;;;;;21.80;83.30;;;;;;5075331;28;20015;-96
2022/08/17 01:32:36;;;;;;;;;;;21.70;83.90;;;;;;5075369;28;19933;-96
2022/08/17 01:35:01;;;;;;;;;;;21.70;83.80;;;;;;5075734;28;19952;-96
2022/08/17 01:37:33;;;;;;;;;;;21.60;83.80;;;;;;5075391;28;20478;-96
2022/08/17 01:40:02;;;;;;;;;;;21.60;84.20;;;;;;5076114;28;19954;-96
2022/08/17 01:42:30;;;;;;;;;;;21.60;84.20;;;;;;5075324;28;20285;-96
2022/08/17 01:44:57;;;;;;;;;;;21.70;84.00;;;;;;5076064;28;19967;-96
2022/08/17 01:47:23;;;;;;;;;;;21.70;83.90;;;;;;5075754;28;19947;-96
2022/08/17 01:49:49;;;;;;;;;;;21.70;84.00;;;;;;5075637;28;19940;-96
2022/08/17 01:52:15;;;;;;;;;;;21.70;84.10;;;;;;5075369;28;19945;-96
2022/08/17 01:54:43;;;;;;;;;;;21.70;84.10;;;;;;5075310;28;19940;-96
2022/08/17 01:57:09;;;;;;;;;;;21.60;84.20;;;;;;5075953;28;19944;-96
2022/08/17 01:59:35;;;;;;;;;;;21.70;84.00;;;;;;5075482;28;19938;-96
2022/08/17 02:02:01;;;;;;;;;;;21.70;83.70;;;;;;5076388;28;20004;-96
2022/08/17 02:04:27;;;;;;;;;;;21.80;83.30;;;;;;5075701;28;19933;-96
2022/08/17 02:06:52;;;;;;;;;;;21.80;82.90;;;;;;5075596;28;20406;-96
2022/08/17 02:09:18;;;;;;;;;;;21.90;82.80;;;;;;5075284;28;20320;-96
2022/08/17 02:11:44;;;;;;;;;;;21.80;82.90;;;;;;5060327;28;19945;-96
2022/08/17 02:14:10;;;;;;;;;;;21.70;83.50;;;;;;5080306;28;19934;-96
2022/08/17 02:16:36;;;;;;;;;;;21.60;83.80;;;;;;5062536;28;20302;-96
2022/08/17 02:19:03;;;;;;;;;;;21.50;83.80;;;;;;5062439;28;19948;-96
2022/08/17 02:21:28;;;;;;;;;;;21.30;83.70;;;;;;5078476;28;19988;-96
2022/08/17 02:23:54;;;;;;;;;;;21.20;84.10;;;;;;5078568;28;20028;-96
2022/08/17 02:26:20;;;;;;;;;;;21.20;84.50;;;;;;5061056;28;19972;-96
2022/08/17 02:28:46;;;;;;;;;;;21.20;84.70;;;;;;5078820;28;19933;-96
2022/08/17 02:31:11;;;;;;;;;;;21.20;84.90;;;;;;5078403;28;19945;-96
2022/08/17 02:33:37;;;;;;;;;;;21.10;85.10;;;;;;5078681;28;20451;-96
2022/08/17 02:36:03;;;;;;;;;;;21.10;85.50;;;;;;5078506;28;19958;-96
2022/08/17 02:38:30;;;;;;;;;;;20.90;86.40;;;;;;5060364;28;19944;-96
2022/08/17 02:40:57;;;;;;;;;;;20.90;86.60;;;;;;5060077;28;19946;-96
2022/08/17 02:43:23;;;;;;;;;;;21.00;86.90;;;;;;5078376;28;19988;-96
2022/08/17 02:45:49;;;;;;;;;;;21.00;86.80;;;;;;5078033;28;19961;-96
2022/08/17 02:48:14;;;;;;;;;;;21.10;86.20;;;;;;5078250;28;20044;-96
2022/08/17 02:50:40;;;;;;;;;;;21.10;85.90;;;;;;5078163;28;19941;-96
2022/08/17 02:53:05;;;;;;;;;;;21.10;85.60;;;;;;5060660;28;20086;-96
2022/08/17 02:55:33;;;;;;;;;;;21.10;85.20;;;;;;5078204;28;19974;-96
2022/08/17 02:57:58;;;;;;;;;;;21.10;84.80;;;;;;5061014;28;19946;-96
2022/08/17 03:00:28;;;;;;;;;;;21.10;84.40;;;;;;5078749;28;20342;-96
2022/08/17 03:02:55;;;;;;;;;;;21.20;84.40;;;;;;5078304;28;19948;-96
2022/08/17 03:05:21;;;;;;;;;;;21.20;84.20;;;;;;5078753;28;19966;-96
2022/08/17 03:07:47;;;;;;;;;;;21.20;84.20;;;;;;5079512;28;19941;-96
2022/08/17 03:10:13;;;;;;;;;;;21.20;84.20;;;;;;5061720;28;20314;-96
2022/08/17 03:12:40;;;;;;;;;;;21.20;84.00;;;;;;5079429;28;20343;-96
2022/08/17 03:15:16;;;;;;;;;;;21.20;84.00;;;;;;5078078;28;19960;-96
2022/08/17 03:17:42;;;;;;;;;;;21.20;84.00;;;;;;5078740;28;20042;-96
2022/08/17 03:20:08;;;;;;;;;;;21.10;84.50;;;;;;5060936;28;19942;-96
2022/08/17 03:22:35;;;;;;;;;;;21.00;84.80;;;;;;5059896;28;19968;-96
2022/08/17 03:25:00;;;;;;;;;;;21.10;84.70;;;;;;5077385;28;19942;-96
2022/08/17 03:27:26;;;;;;;;;;;21.20;84.70;;;;;;5077897;28;19936;-96
2022/08/17 03:29:52;;;;;;;;;;;21.10;85.00;;;;;;5059515;28;20559;-96
2022/08/17 03:32:19;;;;;;;;;;;21.00;85.20;;;;;;5078025;28;19963;-96
2022/08/17 03:34:44;;;;;;;;;;;21.00;85.10;;;;;;5078468;28;19939;-96
2022/08/17 03:37:11;;;;;;;;;;;21.00;85.10;;;;;;5078182;28;19972;-96
2022/08/17 03:39:37;;;;;;;;;;;20.90;85.30;;;;;;5059705;28;19960;-96
2022/08/17 03:42:06;;;;;;;;;;;21.00;85.60;;;;;;5077955;28;19943;-96
2022/08/17 03:44:32;;;;;;;;;;;21.00;85.60;;;;;;5078181;28;19956;-96
2022/08/17 03:57:55;;;;;;;;;;;20.60;86.30;;;;;;5076923;28;20003;-96
2022/08/17 04:00:20;;;;;;;;;;;20.60;86.90;;;;;;5077329;28;20015;-96
2022/08/17 04:02:46;;;;;;;;;;;20.70;86.70;;;;;;5077028;28;20020;-96
2022/08/17 04:05:13;;;;;;;;;;;20.60;86.20;;;;;;5059236;28;20055;-96
2022/08/17 04:07:40;;;;;;;;;;;20.50;86.00;;;;;;5058643;28;20002;-96
2022/08/17 04:10:05;;;;;;;;;;;20.50;86.20;;;;;;5058718;28;19938;-96
2022/08/17 04:12:41;;;;;;;;;;;20.50;86.30;;;;;;5058483;28;19942;-96
2022/08/17 04:15:07;;;;;;;;;;;20.40;86.50;;;;;;5058126;28;19944;-96
2022/08/17 04:17:32;;;;;;;;;;;20.30;87.00;;;;;;5058128;28;19997;-96
2022/08/17 04:19:58;;;;;;;;;;;20.30;87.30;;;;;;5076044;28;19944;-96
2022/08/17 04:22:24;;;;;;;;;;;20.40;87.50;;;;;;5075649;28;19992;-96
2022/08/17 04:24:50;;;;;;;;;;;20.50;87.30;;;;;;5076416;28;19941;-96
2022/08/17 04:27:15;;;;;;;;;;;20.50;87.10;;;;;;5075960;28;19991;-96
2022/08/17 04:29:41;;;;;;;;;;;20.50;87.10;;;;;;5076569;28;20031;-96
2022/08/17 04:32:06;;;;;;;;;;;20.50;87.20;;;;;;5057696;28;20411;-96
2022/08/17 04:34:32;;;;;;;;;;;20.60;86.80;;;;;;5075088;28;20388;-96
2022/08/17 04:36:58;;;;;;;;;;;20.70;86.50;;;;;;5074937;28;20003;-96
2022/08/17 04:39:25;;;;;;;;;;;20.70;86.40;;;;;;5075447;28;19944;-96
2022/08/17 04:42:05;;;;;;;;;;;20.80;86.20;;;;;;5075062;28;19945;-96
2022/08/17 04:44:31;;;;;;;;;;;20.80;86.10;;;;;;5075620;28;19934;-96
2022/08/17 04:46:57;;;;;;;;;;;20.80;86.00;;;;;;5075131;28;19959;-96
2022/08/17 04:49:22;;;;;;;;;;;20.80;86.00;;;;;;5075298;28;19943;-96
2022/08/17 04:51:48;;;;;;;;;;;20.80;86.40;;;;;;5074920;28;19942;-96
2022/08/17 04:54:16;;;;;;;;;;;20.90;86.30;;;;;;5075383;28;19938;-96
2022/08/17 04:56:41;;;;;;;;;;;21.00;86.20;;;;;;5074608;28;19975;-96
2022/08/17 04:59:15;;;;;;;;;;;21.00;86.50;;;;;;5074692;28;19944;-96
2022/08/17 05:01:42;;;;;;;;;;;21.20;86.00;;;;;;5075009;28;19940;-96
2022/08/17 05:04:10;;;;;;;;;;;21.30;85.50;;;;;;5074655;28;20410;-96
2022/08/17 05:06:36;;;;;;;;;;;21.30;84.70;;;;;;5074775;28;20057;-96
2022/08/17 05:09:01;;;;;;;;;;;21.30;84.40;;;;;;5074494;28;20037;-96
2022/08/17 05:11:27;;;;;;;;;;;21.30;84.30;;;;;;5075339;28;19941;-96
2022/08/17 05:13:54;;;;;;;;;;;21.40;84.10;;;;;;5075011;28;20402;-96
2022/08/17 05:16:20;;;;;;;;;;;21.40;83.70;;;;;;5075483;28;19939;-96
2022/08/17 05:18:46;;;;;;;;;;;21.60;83.40;;;;;;5056915;28;19944;-96
2022/08/17 05:21:12;;;;;;;;;;;21.70;83.30;;;;;;5074450;28;20436;-96
2022/08/17 05:23:38;;;;;;;;;;;21.80;83.10;;;;;;5074543;28;20031;-96
2022/08/17 05:26:04;;;;;;;;;;;21.80;82.90;;;;;;5074700;28;19960;-96
2022/08/17 05:28:30;;;;;;;;;;;21.90;82.90;;;;;;5074561;28;20333;-96
2022/08/17 05:30:56;;;;;;;;;;;22.10;82.40;;;;;;5074551;28;19962;-95
2022/08/17 05:33:24;;;;;;;;;;;22.30;81.70;;;;;;5074530;28;19980;-96
2022/08/17 05:35:50;;;;;;;;;;;22.40;81.10;;;;;;5074541;28;19956;-96
2022/08/17 05:38:17;;;;;;;;;;;22.60;80.60;;;;;;5074657;28;19945;-96
2022/08/17 05:40:43;;;;;;;;;;;22.80;80.40;;;;;;5074581;28;19991;-96
2022/08/17 05:43:11;;;;;;;;;;;22.80;80.00;;;;;;5074388;28;20308;-96
2022/08/17 05:45:57;;;;;;;;;;;22.90;79.70;;;;;;5073977;28;19956;-96
2022/08/17 05:48:23;;;;;;;;;;;23.00;79.40;;;;;;5066396;28;20038;-96
2022/08/17 05:50:54;;;;;;;;;;;23.00;79.20;;;;;;5074424;28;19944;-96
2022/08/17 05:53:23;;;;;;;;;;;23.10;79.10;;;;;;5074104;28;20074;-96
2022/08/17 05:55:55;;;;;;;;;;;23.10;79.20;;;;;;5081501;22;20022;-96
2022/08/17 05:58:31;;;;;;;;;;;23.20;79.10;;;;;;5072955;28;20507;-96
2022/08/17 06:01:08;;;;;;;;;;;23.20;79.10;;;;;;5074078;28;20039;-96
2022/08/17 06:03:48;;;;;;;;;;;23.30;79.00;;;;;;5073573;28;20030;-96
2022/08/17 06:06:13;;;;;;;;;;;23.30;78.90;;;;;;5073720;28;19964;-96
2022/08/17 06:08:57;;;;;;;;;;;23.40;78.90;;;;;;5074346;28;20402;-96
2022/08/17 06:11:33;;;;;;;;;;;23.50;78.70;;;;;;5073707;28;19947;-96
2022/08/17 06:13:59;;;;;;;;;;;23.50;78.60;;;;;;5074012;28;19941;-96
2022/08/17 06:16:27;;;;;;;;;;;23.60;78.60;;;;;;5073654;28;20093;-96
2022/08/17 06:18:58;;;;;;;;;;;23.70;78.50;;;;;;5074199;28;20044;-96
2022/08/17 06:21:26;;;;;;;;;;;23.70;78.70;;;;;;5073939;28;20079;-96
2022/08/17 06:24:20;;;;;;;;;;;23.70;78.60;;;;;;5074222;28;19989;-96
2022/08/17 06:26:46;;;;;;;;;;;23.80;78.90;;;;;;5073530;28;20000;-96
2022/08/17 06:29:15;;;;;;;;;;;23.80;78.90;;;;;;5074130;28;20032;-96
2022/08/17 06:31:41;;;;;;;;;;;23.80;79.00;;;;;;5055511;28;19944;-96
2022/08/17 06:34:08;;;;;;;;;;;23.90;79.10;;;;;;5074140;28;19947;-96
2022/08/17 06:36:42;;;;;;;;;;;24.10;78.80;;;;;;5073589;28;19959;-96
2022/08/17 06:39:08;;;;;;;;;;;24.20;78.80;;;;;;5073756;28;19938;-96
2022/08/17 06:41:33;;;;;;;;;;;24.30;78.60;;;;;;5073893;28;20477;-96
2022/08/17 06:44:08;;;;;;;;;;;24.30;78.40;;;;;;5076257;28;20377;-96
2022/08/17 06:46:36;;;;;;;;;;;24.30;78.10;;;;;;5075871;28;19959;-96
2022/08/17 06:49:08;;;;;;;;;;;24.40;78.00;;;;;;5075264;28;19976;-96
2022/08/17 06:51:38;;;;;;;;;;;24.40;77.90;;;;;;5074990;28;19944;-96
2022/08/17 06:54:12;;;;;;;;;;;24.40;78.00;;;;;;5058533;28;19953;-96
2022/08/17 06:56:38;;;;;;;;;;;24.50;78.00;;;;;;5057550;28;19992;-96
2022/08/17 06:59:06;;;;;;;;;;;24.50;77.90;;;;;;5060187;28;20009;-96
2022/08/17 07:01:33;;;;;;;;;;;24.50;78.10;;;;;;5061565;28;20008;-96
2022/08/17 07:04:02;;;;;;;;;;;24.60;78.50;;;;;;5079043;28;19936;-96
2022/08/17 07:06:33;;;;;;;;;;;24.60;78.40;;;;;;5061336;28;20335;-96
2022/08/17 07:09:01;;;;;;;;;;;24.70;78.40;;;;;;5062539;28;19939;-96
2022/08/17 07:11:46;;;;;;;;;;;24.70;78.60;;;;;;5061742;28;19943;-96
2022/08/17 07:14:41;;;;;;;;;;;24.80;78.40;;;;;;5081243;28;19949;-96
2022/08/17 07:17:09;;;;;;;;;;;24.90;79.20;;;;;;5075934;28;19991;-96
2022/08/17 07:19:39;;;;;;;;;;;24.90;79.80;;;;;;5068500;28;20035;-96
2022/08/17 07:22:07;;;;;;;;;;;25.00;79.80;;;;;;5085980;28;19991;-96
2022/08/17 07:24:36;;;;;;;;;;;25.10;79.50;;;;;;5068895;28;19946;-96
2022/08/17 07:27:14;;;;;;;;;;;25.00;80.00;;;;;;5086165;28;19982;-96
2022/08/17 07:29:42;;;;;;;;;;;25.10;79.20;;;;;;5085032;28;20320;-96
2022/08/17 07:32:09;;;;;;;;;;;25.20;78.90;;;;;;5068104;28;19943;-96
2022/08/17 07:34:58;;;;;;;;;;;25.20;79.10;;;;;;5087346;28;19941;-96
2022/08/17 07:37:24;;;;;;;;;;;25.30;79.20;;;;;;5069960;28;20001;-96
2022/08/17 07:39:50;;;;;;;;;;;25.40;79.10;;;;;;5087990;28;19939;-96
2022/08/17 07:42:15;;;;;;;;;;;25.50;79.10;;;;;;5086361;28;20001;-96
2022/08/17 07:44:49;;;;;;;;;;;25.60;78.80;;;;;;5066839;28;19966;-96
2022/08/17 07:49:59;;;;;;;;;;;25.80;77.90;;;;;;5090668;28;19958;-96
2022/08/17 07:52:28;;;;;;;;;;;25.80;77.80;;;;;;5072175;28;19936;-96
2022/08/17 07:54:53;;;;;;;;;;;25.90;77.40;;;;;;5088201;28;20462;-96
2022/08/17 07:57:21;;;;;;;;;;;25.90;77.70;;;;;;5065633;28;19946;-96
2022/08/17 07:59:59;;;;;;;;;;;26.00;77.30;;;;;;5066086;28;19947;-96
2022/08/17 08:02:26;;;;;;;;;;;26.00;77.10;;;;;;5067411;28;20014;-96
2022/08/17 08:05:03;;;;;;;;;;;26.10;77.00;;;;;;5066940;28;19985;-96
2022/08/17 08:07:34;;;;;;;;;;;26.20;76.70;;;;;;5084636;28;19942;-96
2022/08/17 08:10:10;;;;;;;;;;;26.20;76.00;;;;;;5080759;28;19942;-96
2022/08/17 08:12:40;;;;;;;;;;;26.30;76.10;;;;;;5083366;28;19935;-96
2022/08/17 08:15:24;;;;;;;;;;;26.30;76.80;;;;;;5066198;28;19975;-96
2022/08/17 08:17:57;;;;;;;;;;;26.40;78.10;;;;;;5064777;28;19942;-96
2022/08/17 08:20:44;;;;;;;;;;;26.60;76.90;;;;;;5064330;28;19947;-96
2022/08/17 08:23:17;;;;;;;;;;;26.60;75.50;;;;;;5061328;28;19967;-96
2022/08/17 08:25:45;;;;;;;;;;;26.70;76.00;;;;;;5079144;28;19962;-96
2022/08/17 08:28:31;;;;;;;;;;;26.80;75.20;;;;;;5080922;28;20373;-96
2022/08/17 08:31:05;;;;;;;;;;;26.90;74.80;;;;;;5061112;28;19942;-96
2022/08/17 08:33:38;;;;;;;;;;;26.90;74.10;;;;;;5078772;28;20037;-96
2022/08/17 08:36:04;;;;;;;;;;;27.00;73.40;;;;;;5059551;28;20057;-96
2022/08/17 08:38:41;;;;;;;;;;;27.10;73.20;;;;;;5077516;28;20352;-96
2022/08/17 08:41:10;;;;;;;;;;;27.10;73.50;;;;;;5078010;28;19940;-96
2022/08/17 08:44:11;;;;;;;;;;;27.20;73.60;;;;;;5060846;28;19948;-96
2022/08/17 08:46:40;;;;;;;;;;;27.30;72.80;;;;;;5042187;28;19960;-96
2022/08/17 08:49:06;;;;;;;;;;;27.50;70.70;;;;;;5077004;28;19951;-96
2022/08/17 08:51:45;;;;;;;;;;;27.50;71.10;;;;;;5066605;28;19943;-96
2022/08/17 08:54:13;;;;;;;;;;;27.50;70.30;;;;;;5068138;28;19938;-96
2022/08/17 08:56:43;;;;;;;;;;;27.60;72.40;;;;;;5071299;28;19979;-96
2022/08/17 08:59:08;;;;;;;;;;;27.60;70.70;;;;;;5070986;28;19937;-96
2022/08/17 09:01:46;;;;;;;;;;;27.50;70.20;;;;;;5083903;28;19999;-96
2022/08/17 09:04:27;;;;;;;;;;;27.60;70.50;;;;;;5066485;28;19942;-96
2022/08/17 09:07:02;;;;;;;;;;;27.70;72.50;;;;;;5083720;28;19962;-96
2022/08/17 09:09:46;;;;;;;;;;;27.80;70.20;;;;;;5067686;28;20060;-96
2022/08/17 09:12:12;;;;;;;;;;;27.90;69.30;;;;;;5085390;28;19975;-96
2022/08/17 09:15:00;;;;;;;;;;;27.80;68.60;;;;;;5061627;28;19952;-96
2022/08/17 09:17:34;;;;;;;;;;;27.90;69.10;;;;;;5063491;28;19982;-96
2022/08/17 09:20:03;;;;;;;;;;;28.00;69.60;;;;;;5081378;28;19984;-96
2022/08/17 09:22:33;;;;;;;;;;;28.20;70.60;;;;;;5083314;28;19940;-96
2022/08/17 09:25:05;;;;;;;;;;;28.20;68.80;;;;;;5065927;28;20099;-96
2022/08/17 09:27:45;;;;;;;;;;;28.40;65.70;;;;;;5059716;28;19961;-96
2022/08/17 09:30:11;;;;;;;;;;;28.40;63.20;;;;;;5069707;28;20006;-96
2022/08/17 09:32:39;;;;;;;;;;;28.50;64.00;;;;;;5073311;28;20469;-96
2022/08/17 09:35:14;;;;;;;;;;;28.60;62.90;;;;;;5074991;28;19940;-96
2022/08/17 09:37:44;;;;;;;;;;;28.70;64.40;;;;;;5094288;28;20018;-96
2022/08/17 09:40:10;;;;;;;;;;;28.80;66.10;;;;;;5076858;28;19956;-96
2022/08/17 09:42:46;;;;;;;;;;;28.80;62.50;;;;;;5090643;28;19941;-96
2022/08/17 09:45:24;;;;;;;;;;;28.90;63.70;;;;;;5091721;28;19946;-96
2022/08/17 09:47:56;;;;;;;;;;;28.90;62.30;;;;;;5075816;28;20438;-96
2022/08/17 09:50:50;;;;;;;;;;;29.00;61.80;;;;;;5078564;28;19946;-96
2022/08/17 09:53:20;;;;;;;;;;;29.00;60.50;;;;;;5080594;28;19940;-96
2022/08/17 09:56:08;;;;;;;;;;;29.20;62.60;;;;;;5095613;28;19962;-96
2022/08/17 09:58:59;;;;;;;;;;;29.30;61.30;;;;;;5098519;28;19933;-96
2022/08/17 10:01:44;;;;;;;;;;;29.40;61.10;;;;;;5095936;28;19942;-96
2022/08/17 10:04:39;;;;;;;;;;;29.60;57.40;;;;;;5057313;28;19929;-96
2022/08/17 10:07:18;;;;;;;;;;;29.70;57.20;;;;;;5018697;28;19966;-96
2022/08/17 10:10:02;;;;;;;;;;;29.80;57.00;;;;;;5045555;28;20540;-96
2022/08/17 10:12:33;;;;;;;;;;;29.80;58.10;;;;;;5048608;28;20432;-96
2022/08/17 10:15:14;;;;;;;;;;;29.80;56.30;;;;;;5032228;28;20407;-96
2022/08/17 10:17:52;;;;;;;;;;;29.90;54.90;;;;;;5048599;28;20098;-96
2022/08/17 10:20:21;;;;;;;;;;;29.90;55.30;;;;;;5029093;28;20015;-96
2022/08/17 10:28:21;;;;;;;;;;;29.90;56.80;;;;;;5050262;28;19955;-96
2022/08/17 10:30:50;;;;;;;;;;;30.10;56.60;;;;;;5048894;28;19951;-96
2022/08/17 10:33:22;;;;;;;;;;;30.10;57.10;;;;;;5036952;28;19989;-96
2022/08/17 10:36:02;;;;;;;;;;;30.20;57.30;;;;;;5055800;28;19953;-96
2022/08/17 10:38:27;;;;;;;;;;;30.40;56.90;;;;;;5039704;28;19940;-96
2022/08/17 10:40:56;;;;;;;;;;;30.70;57.20;;;;;;5040298;28;19946;-96
2022/08/17 10:44:01;;;;;;;;;;;30.90;56.30;;;;;;5039598;28;19943;-96
2022/08/17 10:46:45;;;;;;;;;;;31.10;56.20;;;;;;5001523;28;20049;-96
2022/08/17 10:49:16;;;;;;;;;;;31.30;55.30;;;;;;5018624;28;20432;-96
2022/08/17 10:51:46;;;;;;;;;;;31.40;51.70;;;;;;5072897;28;19964;-96
2022/08/17 10:54:35;;;;;;;;;;;31.30;52.20;;;;;;5076881;28;19954;-96
2022/08/17 10:57:02;;;;;;;;;;;31.40;53.40;;;;;;5088678;28;20036;-96
2022/08/17 10:59:34;;;;;;;;;;;31.60;55.40;;;;;;5068747;28;19947;-96
2022/08/17 11:02:18;;;;;;;;;;;31.30;53.50;;;;;;5062895;28;19950;-96
2022/08/17 11:04:43;;;;;;;;;;;31.00;55.10;;;;;;5062322;28;20287;-96
2022/08/17 11:07:15;;;;;;;;;;;31.00;55.20;;;;;;5077584;28;19968;-96
2022/08/17 11:09:59;;;;;;;;;;;30.80;54.60;;;;;;5077720;28;19958;-96
2022/08/17 11:12:27;;;;;;;;;;;30.90;54.60;;;;;;5079760;28;19939;-96
2022/08/17 11:15:11;;;;;;;;;;;31.40;53.90;;;;;;5079770;28;19985;-96
2022/08/17 11:17:49;;;;;;;;;;;31.80;53.80;;;;;;5082478;28;19945;-96
2022/08/17 11:20:37;;;;;;;;;;;32.20;53.20;;;;;;5077863;28;19977;-96
2022/08/17 11:23:08;;;;;;;;;;;32.20;52.60;;;;;;5078375;28;19945;-96
2022/08/17 11:25:39;;;;;;;;;;;31.90;53.80;;;;;;5059606;28;19967;-96
2022/08/17 11:28:15;;;;;;;;;;;31.90;53.20;;;;;;5060051;28;19949;-96
2022/08/17 11:30:46;;;;;;;;;;;32.20;53.70;;;;;;5078726;28;20033;-96
2022/08/17 11:33:27;;;;;;;;;;;32.30;51.80;;;;;;5079724;28;19935;-96
2022/08/17 11:35:59;;;;;;;;;;;32.60;52.00;;;;;;5077135;28;19951;-96
2022/08/17 11:38:30;;;;;;;;;;;32.50;52.40;;;;;;5076752;28;19989;-96
2022/08/17 11:41:17;;;;;;;;;;;32.20;51.40;;;;;;5077047;28;19981;-96
2022/08/17 11:43:54;;;;;;;;;;;32.30;52.80;;;;;;5076325;28;19950;-96
2022/08/17 11:46:23;;;;;;;;;;;32.30;51.00;;;;;;5076350;28;19967;-96
2022/08/17 11:51:54;;;;;;;;;;;32.20;50.50;;;;;;5080694;28;20516;-96
2022/08/17 11:54:29;;;;;;;;;;;32.10;50.20;;;;;;5060139;28;20066;-96
2022/08/17 11:56:55;;;;;;;;;;;31.90;52.40;;;;;;5077994;28;19975;-96
2022/08/17 11:59:31;;;;;;;;;;;31.80;52.50;;;;;;5078495;28;19985;-96
2022/08/17 12:01:57;;;;;;;;;;;31.80;52.70;;;;;;5078555;28;19950;-96
2022/08/17 12:04:26;;;;;;;;;;;31.90;53.30;;;;;;5077491;28;19935;-96
2022/08/17 12:06:55;;;;;;;;;;;31.80;52.00;;;;;;5077118;28;19963;-96
2022/08/17 12:09:23;;;;;;;;;;;32.10;52.20;;;;;;5078613;28;19938;-96
2022/08/17 12:11:52;;;;;;;;;;;32.60;50.50;;;;;;5078804;28;19944;-96
2022/08/17 12:14:21;;;;;;;;;;;33.00;49.70;;;;;;5062625;28;19987;-96
2022/08/17 12:17:00;;;;;;;;;;;33.40;48.70;;;;;;5063858;28;19950;-96
2022/08/17 12:19:28;;;;;;;;;;;33.90;49.50;;;;;;5082827;28;19942;-96
2022/08/17 12:22:02;;;;;;;;;;;34.50;47.50;;;;;;5082294;28;20037;-96
2022/08/17 12:24:36;;;;;;;;;;;34.70;45.90;;;;;;5080810;28;19980;-96
2022/08/17 12:27:03;;;;;;;;;;;34.50;45.10;;;;;;5060297;28;19966;-96
2022/08/17 12:29:30;;;;;;;;;;;34.10;46.60;;;;;;5081919;28;19949;-96
2022/08/17 12:31:57;;;;;;;;;;;34.60;46.90;;;;;;5067528;28;19964;-96
2022/08/17 12:34:27;;;;;;;;;;;35.10;46.50;;;;;;5066925;28;19940;-96
2022/08/17 12:37:01;;;;;;;;;;;35.70;44.00;;;;;;5064729;28;19994;-96
2022/08/17 12:39:28;;;;;;;;;;;35.70;43.90;;;;;;5081003;28;19941;-96
2022/08/17 12:41:55;;;;;;;;;;;35.30;44.10;;;;;;5085379;28;19946;-96
2022/08/17 12:44:26;;;;;;;;;;;35.70;43.20;;;;;;5068409;28;19947;-96
2022/08/17 12:46:51;;;;;;;;;;;36.20;40.90;;;;;;5064191;28;19965;-96
2022/08/17 12:49:23;;;;;;;;;;;36.40;40.50;;;;;;5082749;28;19941;-96
2022/08/17 12:51:49;;;;;;;;;;;36.40;41.30;;;;;;5088706;28;20471;-96
2022/08/17 12:54:21;;;;;;;;;;;36.40;40.30;;;;;;5074129;28;19943;-96
2022/08/17 12:56:47;;;;;;;;;;;37.10;42.50;;;;;;5073772;28;20047;-96
2022/08/17 12:59:14;;;;;;;;;;;37.60;41.90;;;;;;5091033;28;19946;-96
2022/08/17 13:01:43;;;;;;;;;;;37.70;39.60;;;;;;5071951;28;20332;-96
2022/08/17 13:04:12;;;;;;;;;;;37.80;39.40;;;;;;5089640;28;19952;-96
2022/08/17 13:06:44;;;;;;;;;;;37.80;39.40;;;;;;5066172;28;19956;-96
2022/08/17 13:09:17;;;;;;;;;;;37.20;41.20;;;;;;5087885;28;19945;-96
2022/08/17 13:11:47;;;;;;;;;;;38.10;39.70;;;;;;5092922;28;19994;-96
2022/08/17 13:14:18;;;;;;;;;;;38.60;38.00;;;;;;5072604;28;19967;-96
2022/08/17 13:16:49;;;;;;;;;;;38.60;38.80;;;;;;5087688;28;19988;-96
2022/08/17 13:19:20;;;;;;;;;;;37.90;38.70;;;;;;5085324;28;19941;-96
2022/08/17 13:21:48;;;;;;;;;;;37.20;41.00;;;;;;5083189;28;19961;-96
2022/08/17 13:24:27;;;;;;;;;;;36.30;43.70;;;;;;5081410;28;19971;-96
2022/08/17 13:27:02;;;;;;;;;;;35.70;44.00;;;;;;5081706;28;20083;-96
2022/08/17 13:29:34;;;;;;;;;;;35.30;45.50;;;;;;5086260;28;19949;-96
2022/08/17 13:32:09;;;;;;;;;;;35.30;44.60;;;;;;5086329;28;19938;-96
2022/08/17 13:34:40;;;;;;;;;;;35.20;45.60;;;;;;5084526;28;20030;-96
2022/08/17 13:37:16;;;;;;;;;;;35.30;44.60;;;;;;5064425;28;19961;-96
2022/08/17 13:39:42;;;;;;;;;;;34.90;48.00;;;;;;5077920;28;20377;-96
2022/08/17 13:42:26;;;;;;;;;;;34.30;49.70;;;;;;5075636;28;19986;-96
2022/08/17 13:44:52;;;;;;;;;;;33.60;51.30;;;;;;5076664;28;19947;-96
2022/08/17 13:47:19;;;;;;;;;;;33.30;52.40;;;;;;5058390;28;20336;-96
2022/08/17 13:49:44;;;;;;;;;;;33.20;53.70;;;;;;5076670;28;19944;-96
2022/08/17 13:52:29;;;;;;;;;;;33.10;52.10;;;;;;5076010;28;19934;-96
2022/08/17 13:54:54;;;;;;;;;;;33.00;53.60;;;;;;5082730;22;20101;-96
2022/08/17 13:57:22;;;;;;;;;;;33.00;53.70;;;;;;5075272;28;19988;-96
2022/08/17 13:59:49;;;;;;;;;;;32.50;53.70;;;;;;5074662;28;19942;-96
2022/08/17 14:02:16;;;;;;;;;;;32.10;56.50;;;;;;5056460;28;19944;-96
2022/08/17 14:04:42;;;;;;;;;;;31.70;56.10;;;;;;5074846;28;20397;-96
2022/08/17 14:07:11;;;;;;;;;;;31.60;57.30;;;;;;5073531;28;19959;-96
2022/08/17 14:09:48;;;;;;;;;;;31.50;57.90;;;;;;5074295;28;19939;-96
2022/08/17 14:12:16;;;;;;;;;;;31.40;57.50;;;;;;5073743;28;19939;-96
2022/08/17 14:14:42;;;;;;;;;;;31.60;58.30;;;;;;5055767;28;19942;-96
2022/08/17 14:17:08;;;;;;;;;;;31.70;57.40;;;;;;5074091;28;19938;-96
2022/08/17 14:19:34;;;;;;;;;;;31.90;56.70;;;;;;5073818;28;20328;-96
2022/08/17 14:21:59;;;;;;;;;;;32.20;57.00;;;;;;5073967;28;19943;-96
2022/08/17 14:24:27;;;;;;;;;;;32.40;55.90;;;;;;5073631;28;20030;-96
2022/08/17 14:26:53;;;;;;;;;;;32.40;55.00;;;;;;5073701;28;19953;-96
2022/08/17 14:29:20;;;;;;;;;;;32.50;55.20;;;;;;5074678;28;19941;-96
2022/08/17 14:31:45;;;;;;;;;;;32.60;55.00;;;;;;5073873;28;20003;-96
2022/08/17 14:34:11;;;;;;;;;;;32.50;54.50;;;;;;5073914;28;20430;-96
2022/08/17 14:36:37;;;;;;;;;;;32.40;53.50;;;;;;5073632;28;19960;-96
2022/08/17 14:39:04;;;;;;;;;;;32.50;54.70;;;;;;5073926;28;19942;-96
2022/08/17 14:41:29;;;;;;;;;;;32.50;53.40;;;;;;5073537;28;19940;-96
2022/08/17 14:43:55;;;;;;;;;;;32.60;51.90;;;;;;5074142;28;19949;-96
2022/08/17 14:46:21;;;;;;;;;;;32.60;52.60;;;;;;5073651;28;20021;-96
2022/08/17 14:48:47;;;;;;;;;;;32.70;53.40;;;;;;5074082;28;19942;-96
2022/08/17 14:51:14;;;;;;;;;;;32.80;53.70;;;;;;5074255;28;19938;-96
2022/08/17 14:53:40;;;;;;;;;;;32.70;53.40;;;;;;5074293;28;20076;-96
2022/08/17 14:56:06;;;;;;;;;;;32.40;53.20;;;;;;5073597;28;19982;-96